Time;durP1;ratioP1;P1;durP2;ratioP2;P2;SDS_P1;SDS_P2;PMS_P1;PMS_P2;Temp;Humidity;BMP_temperature;BMP_pressure;BME280_temperature;BME280_humidity;BME280_pressure;Samples;Min_cycle;Max_cycle;Signal;HPM_P1;HPM_P2
2023/12/25 00:01:38;;;;;;;;;4.00;4.00;;;;;13.03;68.10;101049.06;4997612;28;45196;-76
2023/12/25 00:04:04;;;;;;;;;4.67;3.67;;;;;13.30;68.05;101092.72;4998481;28;45925;-77
2023/12/25 00:06:29;;;;;;;;;6.00;2.67;;;;;13.24;67.71;101080.00;4997399;28;45462;-78
2023/12/25 00:08:54;;;;;;;;;4.67;3.67;;;;;13.10;67.88;101060.81;4996716;28;45398;-78
2023/12/25 00:11:20;;;;;;;;;5.67;3.33;;;;;13.28;67.99;101089.38;4997057;28;45602;-78
2023/12/25 00:13:47;;;;;;;;;0.33;0.33;;;;;13.40;67.43;101106.81;4997157;28;46067;-77
2023/12/25 00:16:12;;;;;;;;;12.67;4.67;;;;;12.91;67.40;101026.25;4996754;28;45525;-78
2023/12/25 00:18:38;;;;;;;;;6.67;4.33;;;;;13.35;67.64;101101.94;4991399;28;45546;-78
2023/12/25 00:21:03;;;;;;;;;2.33;1.33;;;;;13.17;67.47;101077.03;4996903;28;45522;-79
2023/12/25 00:23:29;;;;;;;;;3.67;3.67;;;;;13.47;67.52;101113.25;4996561;28;45397;-78
2023/12/25 00:25:54;;;;;;;;;3.67;2.33;;;;;13.51;67.36;101116.44;5009416;28;45331;-76
2023/12/25 00:28:25;;;;;;;;;3.00;2.00;;;;;13.15;67.22;101048.81;4999018;28;45354;-78
2023/12/25 00:30:50;;;;;;;;;5.00;3.00;;;;;13.11;67.18;101037.63;4995008;28;45449;-76
2023/12/25 00:33:16;;;;;;;;;5.00;3.67;;;;;13.17;67.55;101055.69;4996615;28;45448;-78
2023/12/25 00:35:41;;;;;;;;;6.67;2.67;;;;;12.92;67.39;101008.41;4996569;28;45312;-77
2023/12/25 00:38:06;;;;;;;;;4.67;3.00;;;;;13.22;67.98;101063.28;4995964;28;45478;-78
2023/12/25 00:40:32;;;;;;;;;2.00;2.00;;;;;13.34;67.73;101078.06;4987479;28;45396;-78
2023/12/25 00:42:57;;;;;;;;;3.33;2.33;;;;;13.34;67.90;101086.06;4995380;28;46160;-78
2023/12/25 00:45:22;;;;;;;;;4.33;4.33;;;;;13.42;67.91;101096.00;4997849;28;45366;-77
2023/12/25 00:47:48;;;;;;;;;3.33;2.33;;;;;12.92;68.16;101014.59;4996351;28;45427;-77
2023/12/25 00:50:13;;;;;;;;;4.00;3.00;;;;;13.36;67.91;101090.25;4996738;28;45512;-79
2023/12/25 00:52:38;;;;;;;;;3.00;2.00;;;;;13.32;68.01;101075.53;4997570;28;45600;-78
2023/12/25 00:55:04;;;;;;;;;2.67;0.33;;;;;13.32;68.24;101085.38;5000548;28;45487;-77
2023/12/25 00:57:30;;;;;;;;;6.00;3.33;;;;;13.16;68.30;101064.69;5001637;28;45430;-76
2023/12/25 00:59:55;;;;;;;;;3.67;1.33;;;;;13.35;68.55;101090.41;5001347;28;45290;-77
2023/12/25 01:02:20;;;;;;;;;2.67;1.33;;;;;13.08;68.66;101057.44;5000893;28;45974;-78
2023/12/25 01:04:46;;;;;;;;;5.00;3.67;;;;;13.35;68.63;101103.78;5011642;28;45462;-78
2023/12/25 01:07:11;;;;;;;;;5.00;3.67;;;;;13.26;68.53;101080.66;4998487;28;45477;-77
2023/12/25 01:09:36;;;;;;;;;5.00;4.33;;;;;12.95;68.50;101040.97;4997447;28;45462;-76
2023/12/25 01:12:02;;;;;;;;;3.67;3.67;;;;;13.39;68.48;101091.78;4996385;28;46265;-78
2023/12/25 01:14:27;;;;;;;;;8.67;2.33;;;;;12.82;68.55;101013.84;4995373;28;45585;-77
2023/12/25 01:16:52;;;;;;;;;3.67;3.67;;;;;13.14;68.95;101072.00;4996887;28;45766;-79
2023/12/25 01:19:18;;;;;;;;;2.67;1.67;;;;;13.32;69.19;101096.91;4996139;28;45324;-77
2023/12/25 01:21:43;;;;;;;;;7.33;4.67;;;;;13.35;68.89;101098.44;4996577;28;45898;-79
2023/12/25 01:24:09;;;;;;;;;1.67;1.67;;;;;13.27;68.81;101096.53;4994622;28;45438;-78
2023/12/25 01:26:34;;;;;;;;;6.33;4.00;;;;;13.17;69.37;101082.38;4990731;28;45501;-77
2023/12/25 01:28:59;;;;;;;;;6.00;3.00;;;;;13.31;69.23;101105.06;4987193;28;46059;-77
2023/12/25 01:31:25;;;;;;;;;2.67;1.67;;;;;13.35;69.36;101101.09;4986667;28;45462;-78
2023/12/25 01:33:50;;;;;;;;;1.75;1.75;;;;;13.34;69.46;101099.44;4979214;28;45470;-78
2023/12/25 01:36:15;;;;;;;;;3.67;2.67;;;;;13.12;69.19;101059.81;4993168;28;45431;-77
2023/12/25 01:38:41;;;;;;;;;5.67;3.67;;;;;13.33;69.62;101090.56;4995256;28;45481;-76
2023/12/25 01:41:06;;;;;;;;;6.67;3.33;;;;;13.22;69.86;101077.47;4994459;28;45325;-75
2023/12/25 01:43:31;;;;;;;;;4.33;4.00;;;;;12.90;70.01;101031.75;4994533;28;45973;-77
2023/12/25 01:45:57;;;;;;;;;3.00;3.00;;;;;12.89;69.97;101022.91;4994094;28;45535;-77
2023/12/25 01:48:24;;;;;;;;;1.33;1.33;;;;;13.17;69.92;101065.53;4994584;28;45509;-77
2023/12/25 01:50:51;;;;;;;;;2.00;2.00;;;;;13.12;69.74;101046.47;4994350;28;46448;-76
2023/12/25 01:53:16;;;;;;;;;5.00;2.33;;;;;13.01;69.99;101026.16;4994221;28;45549;-79
2023/12/25 01:55:42;;;;;;;;;6.00;3.33;;;;;13.22;70.21;101068.63;4994556;28;45312;-77
2023/12/25 01:58:07;;;;;;;;;4.33;4.00;;;;;12.75;69.96;100986.06;4994439;28;45490;-77
2023/12/25 02:00:34;;;;;;;;;5.00;2.33;;;;;12.33;70.12;100933.31;4993513;28;45444;-77
2023/12/25 02:03:00;;;;;;;;;3.67;3.33;;;;;13.09;70.28;101053.78;4994418;28;45492;-78
2023/12/25 02:05:26;;;;;;;;;4.00;3.00;;;;;13.00;69.85;101044.00;4994048;28;46154;-78
2023/12/25 02:07:53;;;;;;;;;3.67;2.33;;;;;13.16;70.40;101070.03;4994131;28;45566;-78
2023/12/25 02:10:29;;;;;;;;;6.33;4.33;;;;;13.16;70.28;101075.38;4993031;28;45478;-76
2023/12/25 02:12:55;;;;;;;;;6.00;4.33;;;;;13.19;70.31;101079.59;4993542;28;45416;-77
2023/12/25 02:15:22;;;;;;;;;3.67;2.67;;;;;13.18;70.16;101067.22;4993305;28;45395;-77
2023/12/25 02:17:50;;;;;;;;;1.67;1.67;;;;;13.16;70.29;101062.00;4993932;28;45386;-75
2023/12/25 02:20:15;;;;;;;;;6.67;4.00;;;;;13.20;70.40;101082.09;4992868;28;46793;-77
2023/12/25 02:22:41;;;;;;;;;2.00;2.00;;;;;12.87;70.33;101035.56;4993324;28;45417;-76
2023/12/25 02:25:13;;;;;;;;;3.33;2.33;;;;;13.21;70.19;101088.28;4994067;28;45406;-77
2023/12/25 02:27:39;;;;;;;;;3.00;2.00;;;;;13.08;70.87;101072.63;4952987;28;1153133;-78
2023/12/25 02:30:06;;;;;;;;;1.67;1.67;;;;;13.19;70.91;101091.09;4994777;28;45574;-76
2023/12/25 02:32:31;;;;;;;;;5.00;3.50;;;;;12.58;70.80;100994.91;4994325;28;45352;-75
2023/12/25 02:34:57;;;;;;;;;4.33;2.00;;;;;12.97;71.07;101060.31;4994976;28;45348;-77
2023/12/25 02:37:22;;;;;;;;;4.00;3.00;;;;;13.18;71.01;101091.25;4994609;28;45366;-76
2023/12/25 02:39:47;;;;;;;;;4.33;3.33;;;;;13.13;71.14;101077.50;4986389;28;46129;-78
2023/12/25 02:42:13;;;;;;;;;3.00;3.00;;;;;13.14;70.69;101064.00;4994155;28;45385;-76
2023/12/25 02:44:38;;;;;;;;;1.33;1.33;;;;;13.19;70.85;101079.59;4993992;28;45715;-77
2023/12/25 02:47:04;;;;;;;;;3.67;2.00;;;;;12.56;70.89;100979.03;4998874;28;45371;-75
2023/12/25 02:49:29;;;;;;;;;4.00;2.33;;;;;13.03;70.75;101051.75;4990087;28;45522;-78
2023/12/25 02:51:54;;;;;;;;;3.67;2.00;;;;;12.98;70.78;101040.66;4993915;28;45461;-76
2023/12/25 02:54:19;;;;;;;;;2.25;1.25;;;;;13.27;70.97;101088.53;4994109;28;45552;-77
2023/12/25 02:56:45;;;;;;;;;3.00;3.00;;;;;13.19;71.12;101084.94;4993704;28;45478;-78
2023/12/25 02:59:10;;;;;;;;;6.33;3.00;;;;;12.77;70.90;101024.09;4992835;28;46030;-77
2023/12/25 03:01:36;;;;;;;;;6.67;5.00;;;;;13.17;70.77;101078.88;4995140;28;45328;-77
2023/12/25 03:04:01;;;;;;;;;2.33;2.00;;;;;13.14;71.06;101079.19;4997676;28;45553;-77
2023/12/25 03:06:26;;;;;;;;;3.00;3.00;;;;;13.12;71.08;101078.50;4994851;28;45633;-77
2023/12/25 03:08:51;;;;;;;;;3.33;2.33;;;;;13.25;71.04;101090.50;4999285;28;48294;-78
2023/12/25 03:11:17;;;;;;;;;5.33;4.00;;;;;13.07;71.06;101050.44;4993549;28;45394;-78
2023/12/25 03:13:43;;;;;;;;;3.33;3.33;;;;;13.29;70.98;101083.03;4993576;28;45865;-76
2023/12/25 03:16:08;;;;;;;;;8.67;5.00;;;;;13.14;71.13;101074.69;4994020;28;45487;-76
2023/12/25 03:18:34;;;;;;;;;6.00;3.00;;;;;13.21;71.33;101073.09;4993454;28;45263;-75
2023/12/25 03:20:59;;;;;;;;;7.00;3.67;;;;;13.21;71.08;101069.59;4993244;28;45484;-77
2023/12/25 03:23:25;;;;;;;;;2.00;2.00;;;;;13.19;71.26;101060.91;4993506;28;45413;-76
2023/12/25 03:25:51;;;;;;;;;4.00;2.00;;;;;13.04;71.44;101049.91;4986760;28;45425;-76
2023/12/25 03:28:16;;;;;;;;;3.00;3.00;;;;;13.17;71.75;101076.19;4993313;28;45480;-78
2023/12/25 03:30:41;;;;;;;;;3.67;2.33;;;;;13.19;72.17;101079.59;4992971;28;45481;-79
2023/12/25 03:33:10;;;;;;;;;1.67;1.67;;;;;13.20;72.06;101086.59;4995040;28;45560;-78
2023/12/25 03:35:35;;;;;;;;;8.33;3.00;;;;;13.17;72.16;101078.88;4996417;28;45530;-77
2023/12/25 03:38:00;;;;;;;;;2.50;1.75;;;;;13.03;72.03;101058.91;4996277;28;45653;-79
2023/12/25 03:40:26;;;;;;;;;2.67;2.67;;;;;12.81;72.38;101025.47;4996702;28;45399;-78
2023/12/25 03:42:52;;;;;;;;;4.00;2.67;;;;;12.91;72.35;101034.25;4995289;28;45256;-75
2023/12/25 03:45:18;;;;;;;;;2.00;2.00;;;;;12.92;72.16;101035.94;4995789;28;45299;-76
2023/12/25 03:47:44;;;;;;;;;6.00;5.00;;;;;13.19;72.33;101084.94;4994858;28;45578;-76
2023/12/25 03:50:09;;;;;;;;;1.33;0.67;;;;;13.02;72.62;101047.41;4992618;28;45308;-76
2023/12/25 03:52:34;;;;;;;;;0.50;0.50;;;;;13.19;72.60;101077.75;4993317;28;45499;-76
2023/12/25 03:55:00;;;;;;;;;3.00;2.00;;;;;13.15;72.61;101072.84;4993204;28;45438;-78
2023/12/25 03:57:25;;;;;;;;;3.00;3.00;;;;;13.05;72.78;101062.25;4993253;28;46272;-77
2023/12/25 03:59:50;;;;;;;;;0.00;0.00;;;;;13.13;72.66;101077.50;4994894;28;45287;-78
2023/12/25 04:02:16;;;;;;;;;4.33;2.00;;;;;12.97;72.62;101032.81;4993201;28;45252;-79
2023/12/25 04:04:41;;;;;;;;;2.33;0.67;;;;;13.01;72.64;101044.84;4993409;28;45614;-77
2023/12/25 04:07:07;;;;;;;;;1.67;1.67;;;;;12.85;72.80;101018.03;4993545;28;45450;-77
2023/12/25 04:09:32;;;;;;;;;3.00;1.00;;;;;13.14;72.76;101076.50;4993906;28;45499;-78
2023/12/25 04:11:57;;;;;;;;;4.33;1.00;;;;;13.08;72.61;101064.63;4993789;28;45716;-77
2023/12/25 04:14:23;;;;;;;;;3.00;2.00;;;;;12.82;72.63;101024.50;4993379;28;45781;-76
2023/12/25 04:16:48;;;;;;;;;3.67;1.33;;;;;13.13;72.72;101064.16;4993278;28;46072;-77
2023/12/25 04:19:13;;;;;;;;;3.67;0.67;;;;;13.16;72.48;101054.00;4993840;28;45602;-78
2023/12/25 04:21:38;;;;;;;;;1.00;1.00;;;;;13.05;72.53;101031.06;4994282;28;45572;-77
2023/12/25 04:24:04;;;;;;;;;2.67;1.67;;;;;13.23;71.99;101059.63;4994969;28;45366;-75
2023/12/25 04:26:29;;;;;;;;;1.00;0.67;;;;;13.23;72.11;101060.47;4993890;28;46245;-77
2023/12/25 04:28:55;;;;;;;;;1.67;1.00;;;;;13.22;72.42;101044.59;4981223;28;45605;-77
2023/12/25 04:31:21;;;;;;;;;2.33;0.67;;;;;13.22;72.55;101052.59;4989197;28;45776;-77
2023/12/25 04:33:46;;;;;;;;;1.33;1.33;;;;;13.13;72.50;101043.63;4993419;28;45638;-78
2023/12/25 04:36:12;;;;;;;;;3.33;2.33;;;;;13.23;72.66;101049.78;4993003;28;46265;-77
2023/12/25 04:38:37;;;;;;;;;1.33;1.33;;;;;13.22;72.77;101024.06;4992443;28;45561;-76
2023/12/25 04:41:03;;;;;;;;;1.67;1.67;;;;;13.22;72.82;101049.94;5003909;28;45221;-77
2023/12/25 04:43:29;;;;;;;;;2.33;1.33;;;;;13.26;72.72;101053.97;4993838;28;45302;-77
2023/12/25 04:45:55;;;;;;;;;1.00;1.00;;;;;13.12;72.31;101017.94;4996211;28;45488;-76
2023/12/25 04:48:20;;;;;;;;;2.00;2.00;;;;;13.33;72.20;101057.69;4995080;28;46122;-77
2023/12/25 04:50:46;;;;;;;;;3.00;1.33;;;;;13.36;72.34;101062.72;4996372;28;45466;-78
2023/12/25 04:53:12;;;;;;;;;5.00;0.67;;;;;13.40;72.12;101064.09;4996669;28;45459;-77
2023/12/25 04:55:37;;;;;;;;;1.67;1.67;;;;;13.42;71.79;101058.63;4995253;28;46956;-77
2023/12/25 04:58:03;;;;;;;;;2.33;1.67;;;;;13.35;72.00;101055.72;4995451;28;45365;-77
2023/12/25 05:00:29;;;;;;;;;0.67;0.67;;;;;13.13;72.36;101032.97;4995981;28;45488;-77
2023/12/25 05:02:55;;;;;;;;;6.33;1.67;;;;;13.35;72.34;101058.38;4995491;28;45539;-76
2023/12/25 05:05:20;;;;;;;;;0.50;0.50;;;;;13.42;71.79;101061.28;4995549;28;46237;-77
2023/12/25 05:07:45;;;;;;;;;2.00;2.00;;;;;13.36;71.96;101057.38;4995814;28;45481;-77
2023/12/25 05:10:11;;;;;;;;;0.00;0.00;;;;;13.36;72.04;101049.38;4986460;28;45438;-77
2023/12/25 05:12:36;;;;;;;;;3.67;1.33;;;;;13.40;72.08;101064.09;4995822;28;45470;-77
2023/12/25 05:15:02;;;;;;;;;1.00;0.75;;;;;13.42;71.65;101064.78;4995637;28;45455;-76
2023/12/25 05:17:27;;;;;;;;;3.00;1.50;;;;;13.39;71.73;101047.22;4995305;28;45642;-77
2023/12/25 05:19:53;;;;;;;;;2.50;0.75;;;;;13.40;71.72;101046.22;4987828;28;45542;-76
2023/12/25 05:22:18;;;;;;;;;0.00;0.00;;;;;13.29;72.19;101037.63;4988236;28;45385;-78
2023/12/25 05:24:43;;;;;;;;;0.33;0.33;;;;;13.19;72.12;101023.53;4995759;28;45226;-76
2023/12/25 05:27:08;;;;;;;;;1.67;1.33;;;;;13.30;71.97;101039.31;4995024;28;45467;-77
2023/12/25 05:29:34;;;;;;;;;2.00;2.00;;;;;13.37;71.72;101035.84;4994643;28;45355;-77
2023/12/25 05:32:00;;;;;;;;;0.00;0.00;;;;;13.40;72.15;101034.72;4995789;28;45379;-78
2023/12/25 05:34:26;;;;;;;;;0.50;0.00;;;;;13.27;71.88;101034.28;4995227;28;45360;-77
2023/12/25 05:36:52;;;;;;;;;2.00;0.67;;;;;13.41;71.81;101063.09;4995534;28;45494;-77
2023/12/25 05:39:18;;;;;;;;;0.50;0.00;;;;;13.41;71.57;101057.75;4995260;28;45655;-77
2023/12/25 05:41:43;;;;;;;;;1.50;0.00;;;;;13.27;71.61;101044.97;4987637;28;45461;-76
2023/12/25 05:44:08;;;;;;;;;2.50;0.00;;;;;13.26;71.80;101032.63;4994752;28;45671;-77
2023/12/25 05:46:34;;;;;;;;;0.00;0.00;;;;;13.39;71.40;101035.69;4994820;28;45287;-75
2023/12/25 05:48:59;;;;;;;;;1.75;1.75;;;;;13.36;71.57;101034.19;4995396;28;45346;-77
2023/12/25 05:51:24;;;;;;;;;2.67;2.67;;;;;13.38;71.83;101047.38;4994124;28;45384;-77
2023/12/25 05:53:50;;;;;;;;;0.00;0.00;;;;;13.28;71.54;101020.78;4995116;28;45728;-76
2023/12/25 05:56:15;;;;;;;;;5.00;5.00;;;;;13.23;71.76;101016.91;4993954;28;45388;-77
2023/12/25 05:58:40;;;;;;;;;0.75;0.00;;;;;13.39;71.89;101041.88;4994331;28;45407;-77
2023/12/25 06:01:08;;;;;;;;;0.00;0.00;;;;;13.19;71.58;101010.16;4980056;28;45449;-77
2023/12/25 06:03:34;;;;;;;;;0.00;0.00;;;;;13.21;71.88;101013.53;4985041;28;46511;-77
2023/12/25 06:05:59;;;;;;;;;0.00;0.00;;;;;13.36;71.79;101046.69;4994707;28;45569;-76
2023/12/25 06:08:25;;;;;;;;;0.00;0.00;;;;;13.31;72.01;101041.81;4987855;28;45332;-76
2023/12/25 06:10:50;;;;;;;;;1.25;1.25;;;;;13.25;71.92;101045.13;4996359;28;45354;-78
2023/12/25 06:13:16;;;;;;;;;0.00;0.00;;;;;13.19;72.01;101037.72;4995762;28;45969;-78
2023/12/25 06:15:41;;;;;;;;;1.67;0.33;;;;;13.15;72.19;101030.13;4997050;28;45556;-76
2023/12/25 06:18:06;;;;;;;;;0.00;0.00;;;;;13.25;71.83;101044.28;4998959;28;45559;-78
2023/12/25 06:20:32;;;;;;;;;0.25;0.00;;;;;13.23;71.79;101044.44;4997585;28;45297;-75
2023/12/25 06:22:57;;;;;;;;;0.33;0.00;;;;;13.18;72.33;101040.53;4996325;28;45418;-76
2023/12/25 06:25:22;;;;;;;;;0.00;0.00;;;;;13.19;71.99;101047.56;4995514;28;45645;-77
2023/12/25 06:27:48;;;;;;;;;0.00;0.00;;;;;13.15;72.10;101046.16;4993739;28;45327;-77
2023/12/25 06:30:13;;;;;;;;;0.50;0.50;;;;;13.25;72.48;101057.63;4994555;28;45512;-78
2023/12/25 06:32:40;;;;;;;;;2.25;0.25;;;;;13.23;72.29;101056.97;4997952;28;46031;-79
2023/12/25 06:35:06;;;;;;;;;0.25;0.00;;;;;13.16;72.64;101048.66;4990689;28;45380;-76
2023/12/25 06:37:32;;;;;;;;;0.00;0.00;;;;;13.23;72.24;101054.28;4994287;28;45491;-77
2023/12/25 06:39:57;;;;;;;;;0.25;0.00;;;;;12.93;72.37;101000.25;4993999;28;45352;-77
2023/12/25 06:42:23;;;;;;;;;0.00;0.00;;;;;13.07;72.35;101018.41;4994038;28;46156;-78
2023/12/25 06:44:48;;;;;;;;;0.00;0.00;;;;;13.10;72.62;101034.09;4993924;28;45519;-77
2023/12/25 06:47:13;;;;;;;;;0.00;0.00;;;;;13.27;72.10;101066.31;4995233;28;45459;-77
2023/12/25 06:49:39;;;;;;;;;0.00;0.00;;;;;13.03;73.20;101038.41;4994880;28;45304;-77
2023/12/25 06:52:04;;;;;;;;;0.00;0.00;;;;;13.22;73.18;101071.31;4994065;28;46008;-76
2023/12/25 06:54:29;;;;;;;;;0.00;0.00;;;;;13.20;72.81;101065.25;4994228;28;45587;-79
2023/12/25 06:56:55;;;;;;;;;0.00;0.00;;;;;13.20;72.82;101059.91;4993675;28;45235;-76
2023/12/25 06:59:20;;;;;;;;;1.00;0.00;;;;;13.10;73.18;101055.47;4992346;28;45483;-77
2023/12/25 07:01:45;;;;;;;;;0.00;0.00;;;;;13.17;73.12;101070.84;4994267;28;45772;-77
2023/12/25 07:04:11;;;;;;;;;0.00;0.00;;;;;13.16;73.39;101066.50;4994211;28;45476;-78
2023/12/25 07:06:37;;;;;;;;;0.00;0.00;;;;;13.11;73.33;101061.63;4994353;28;45274;-78
2023/12/25 07:09:02;;;;;;;;;0.00;0.00;;;;;12.98;73.23;101023.81;4994121;28;45492;-78
2023/12/25 07:11:28;;;;;;;;;0.00;0.00;;;;;12.80;73.71;101013.13;4994045;28;46475;-77
2023/12/25 07:13:56;;;;;;;;;0.00;0.00;;;;;12.99;73.61;101061.00;4993336;28;45517;-77
2023/12/25 07:16:25;;;;;;;;;0.00;0.00;;;;;12.92;73.79;101053.78;4993393;28;45505;-78
2023/12/25 07:18:53;;;;;;;;;0.25;0.00;;;;;12.95;73.93;101062.31;4994423;28;45424;-76
2023/12/25 07:21:18;;;;;;;;;0.00;0.00;;;;;13.04;73.66;101076.59;4993586;28;46063;-77
2023/12/25 07:23:44;;;;;;;;;0.50;0.00;;;;;12.96;73.82;101047.97;4983675;28;45727;-78
2023/12/25 07:26:09;;;;;;;;;0.00;0.00;;;;;13.07;73.84;101066.44;4993145;28;45428;-77
2023/12/25 07:28:35;;;;;;;;;0.25;0.00;;;;;12.99;73.77;101063.69;4992800;28;45713;-77
2023/12/25 07:31:01;;;;;;;;;0.00;0.00;;;;;13.06;73.81;101075.44;4986171;28;45366;-77
2023/12/25 07:33:26;;;;;;;;;0.00;0.00;;;;;12.90;73.58;101045.09;4992954;28;45561;-76
2023/12/25 07:35:52;;;;;;;;;0.75;0.00;;;;;12.97;73.50;101070.16;4994213;28;45411;-77
2023/12/25 07:38:17;;;;;;;;;0.00;0.00;;;;;13.19;73.05;101099.13;4993827;28;45467;-78
2023/12/25 07:40:43;;;;;;;;;0.00;0.00;;;;;13.17;73.05;101102.91;4995626;28;46549;-77
2023/12/25 07:43:10;;;;;;;;;0.00;0.00;;;;;13.10;72.84;101087.50;4994042;28;45462;-78
2023/12/25 07:45:36;;;;;;;;;1.25;0.00;;;;;13.30;73.00;101108.75;4994746;28;45488;-77
2023/12/25 07:48:01;;;;;;;;;0.00;0.00;;;;;13.01;72.35;101061.72;4993948;28;45518;-77
2023/12/25 07:50:27;;;;;;;;;0.00;0.00;;;;;13.17;72.83;101093.06;4993126;28;45648;-78
2023/12/25 07:52:52;;;;;;;;;0.75;0.00;;;;;13.29;72.55;101120.41;4993147;28;45233;-78
2023/12/25 07:55:18;;;;;;;;;1.50;0.25;;;;;13.32;72.78;101125.44;4994315;28;45528;-77
2023/12/25 07:57:43;;;;;;;;;0.00;0.00;;;;;13.23;72.40;101107.69;4992952;28;45293;-77
2023/12/25 08:00:10;;;;;;;;;0.00;0.00;;;;;13.30;71.95;101108.75;4993091;28;46166;-76
2023/12/25 08:02:35;;;;;;;;;0.00;0.00;;;;;13.39;72.08;101129.19;4992849;28;45518;-77
2023/12/25 08:05:02;;;;;;;;;0.00;0.00;;;;;13.33;72.12;101111.09;4993492;28;45599;-77
2023/12/25 08:07:28;;;;;;;;;0.00;0.00;;;;;13.30;72.03;101108.75;4994122;28;45709;-78
2023/12/25 08:09:53;;;;;;;;;0.00;0.00;;;;;13.32;72.19;101118.28;4985666;28;45391;-77
2023/12/25 08:12:18;;;;;;;;;0.00;0.00;;;;;13.25;72.16;101116.38;4993358;28;45420;-78
2023/12/25 08:14:44;;;;;;;;;0.00;0.00;;;;;13.05;72.13;101076.44;4992162;28;45772;-77
2023/12/25 08:17:09;;;;;;;;;0.00;0.00;;;;;13.24;71.96;101098.69;4993789;28;45316;-77
2023/12/25 08:19:34;;;;;;;;;0.00;0.00;;;;;13.30;71.60;101104.25;4995473;28;45610;-78
2023/12/25 08:22:00;;;;;;;;;0.00;0.00;;;;;13.06;72.08;101083.47;4997389;28;45272;-77
2023/12/25 08:24:26;;;;;;;;;0.00;0.00;;;;;13.08;72.08;101088.66;5001827;28;45599;-78
2023/12/25 08:26:52;;;;;;;;;0.75;0.00;;;;;13.10;71.92;101090.16;5002222;28;45237;-76
2023/12/25 08:29:18;;;;;;;;;0.00;0.00;;;;;13.17;72.16;101114.41;4996694;28;45724;-77
2023/12/25 08:31:44;;;;;;;;;0.00;0.00;;;;;13.26;72.10;101128.75;4996122;28;45433;-77
2023/12/25 08:34:09;;;;;;;;;0.00;0.00;;;;;13.16;71.91;101103.88;4997080;28;45312;-78
2023/12/25 08:36:34;;;;;;;;;0.33;0.33;;;;;13.25;72.16;101127.06;4996595;28;45367;-78
2023/12/25 08:39:00;;;;;;;;;0.50;0.00;;;;;13.15;72.14;101104.88;4996945;28;46231;-81
2023/12/25 08:41:26;;;;;;;;;1.00;0.00;;;;;13.26;71.83;101128.75;4996818;28;45373;-78
2023/12/25 08:43:51;;;;;;;;;0.50;0.25;;;;;13.04;71.59;101071.25;4995957;28;45381;-77
2023/12/25 08:46:17;;;;;;;;;0.00;0.00;;;;;13.31;71.58;101131.78;4998828;28;45451;-77
2023/12/25 08:48:42;;;;;;;;;0.00;0.00;;;;;13.31;71.66;101137.97;5013048;28;47604;-78
2023/12/25 08:51:08;;;;;;;;;0.00;0.00;;;;;13.38;71.36;101135.50;5000207;28;45510;-76
2023/12/25 08:53:33;;;;;;;;;0.67;0.67;;;;;13.12;70.59;101092.69;4999869;28;45305;-76
2023/12/25 08:56:00;;;;;;;;;0.00;0.00;;;;;13.29;71.00;101133.78;5002257;28;45493;-78
2023/12/25 08:58:26;;;;;;;;;0.00;0.00;;;;;13.11;70.66;101101.69;5002106;28;46037;-75
2023/12/25 09:00:51;;;;;;;;;0.25;0.00;;;;;13.13;70.21;101109.53;5015834;28;45447;-78
2023/12/25 09:03:17;;;;;;;;;0.00;0.00;;;;;13.14;70.62;101097.88;4999212;28;45634;-77
2023/12/25 09:05:42;;;;;;;;;0.75;0.00;;;;;13.37;70.61;101140.00;4997725;28;45362;-77
2023/12/25 09:08:08;;;;;;;;;0.00;0.00;;;;;13.34;70.49;101131.47;4997710;28;45601;-79
2023/12/25 09:10:34;;;;;;;;;0.00;0.00;;;;;13.38;70.54;101156.88;4997569;28;45584;-78
2023/12/25 09:12:59;;;;;;;;;0.00;0.00;;;;;13.06;70.41;101090.63;4996399;28;45501;-79
2023/12/25 09:15:25;;;;;;;;;0.00;0.00;;;;;13.46;70.39;101156.97;4990779;28;45431;-78
2023/12/25 09:17:50;;;;;;;;;0.00;0.00;;;;;13.40;70.35;101141.53;4992883;28;46840;-77
2023/12/25 09:20:16;;;;;;;;;0.00;0.00;;;;;13.48;70.63;101154.97;4996199;28;45293;-76
2023/12/25 09:22:41;;;;;;;;;0.00;0.00;;;;;13.21;70.85;101117.66;4996571;28;45367;-77
2023/12/25 09:25:07;;;;;;;;;0.75;0.00;;;;;13.45;70.58;101162.47;4995600;28;45636;-76
2023/12/25 09:27:32;;;;;;;;;0.50;0.00;;;;;12.98;71.23;101094.03;4995053;28;45526;-76
2023/12/25 09:29:58;;;;;;;;;0.00;0.00;;;;;13.22;71.38;101149.56;4993775;28;45369;-78
2023/12/25 09:32:23;;;;;;;;;0.00;0.00;;;;;13.38;71.10;101172.91;5011234;28;45486;-81
2023/12/25 09:34:49;;;;;;;;;0.25;0.00;;;;;13.40;71.50;101176.25;4996134;28;45744;-77
2023/12/25 09:37:14;;;;;;;;;0.00;0.00;;;;;13.26;71.04;101156.28;4996517;28;45381;-78
2023/12/25 09:39:43;;;;;;;;;0.00;0.00;;;;;13.30;71.15;101162.16;4996638;28;45553;-78
2023/12/25 09:42:11;;;;;;;;;0.00;0.00;;;;;13.45;71.33;101190.00;4995052;28;45790;-77
2023/12/25 09:44:41;;;;;;;;;0.00;0.00;;;;;13.42;71.37;101187.66;4995133;28;45321;-77
2023/12/25 09:47:09;;;;;;;;;0.50;0.50;;;;;13.51;71.20;101192.06;4987753;28;45482;-77
2023/12/25 09:49:36;;;;;;;;;0.50;0.00;;;;;13.38;71.63;101171.06;4995705;28;45332;-76
2023/12/25 09:52:05;;;;;;;;;0.25;0.00;;;;;13.24;72.17;101149.41;4994838;28;45395;-77
2023/12/25 09:54:30;;;;;;;;;0.25;0.25;;;;;13.42;72.34;101190.31;4981745;28;45345;-77
2023/12/25 09:56:58;;;;;;;;;0.00;0.00;;;;;12.89;72.86;101110.13;4991588;28;45414;-77
2023/12/25 09:59:28;;;;;;;;;0.50;0.50;;;;;13.00;73.07;101118.75;4986797;28;45503;-79
2023/12/25 10:01:55;;;;;;;;;0.75;0.75;;;;;13.32;73.81;101170.84;5001243;28;45494;-78
2023/12/25 10:04:20;;;;;;;;;0.75;0.00;;;;;13.41;74.25;101185.94;5002352;28;45489;-79
2023/12/25 10:06:46;;;;;;;;;0.50;0.00;;;;;13.41;74.73;101196.63;4996334;28;46293;-78
2023/12/25 10:09:11;;;;;;;;;0.25;0.25;;;;;13.13;74.50;101154.91;4995397;28;45508;-80
2023/12/25 10:11:37;;;;;;;;;0.00;0.00;;;;;13.25;74.84;101175.97;4995685;28;46055;-79
2023/12/25 10:14:02;;;;;;;;;1.00;0.00;;;;;13.39;75.51;101204.78;4990257;28;45297;-77
2023/12/25 10:16:31;;;;;;;;;0.00;0.00;;;;;13.44;75.59;101203.53;4991402;28;46017;-79
2023/12/25 10:18:56;;;;;;;;;0.00;0.00;;;;;13.45;75.53;101198.03;4994256;28;45458;-78
2023/12/25 10:21:22;;;;;;;;;4.50;4.50;;;;;13.49;75.78;101193.22;4995532;28;45715;-79
2023/12/25 10:23:48;;;;;;;;;1.67;1.67;;;;;13.48;75.48;101200.41;4994744;28;45418;-78
2023/12/25 10:26:26;;;;;;;;;0.00;0.00;;;;;13.49;75.81;101194.06;4995217;28;45331;-79
2023/12/25 10:28:52;;;;;;;;;0.25;0.25;;;;;13.50;75.52;101195.72;4994031;28;45559;-78
2023/12/25 10:31:26;;;;;;;;;0.50;0.50;;;;;12.93;75.56;101090.97;4993362;28;45457;-78
2023/12/25 10:33:58;;;;;;;;;0.50;0.50;;;;;13.55;75.14;101176.56;4995298;28;45288;-79
2023/12/25 10:36:25;;;;;;;;;0.50;0.00;;;;;13.29;74.90;101147.13;4994541;28;46456;-76
2023/12/25 10:38:50;;;;;;;;;0.75;0.25;;;;;13.03;74.50;101110.47;4994773;28;45610;-79
2023/12/25 10:41:27;;;;;;;;;0.75;0.75;;;;;13.57;74.83;101180.75;4993630;28;45458;-79
2023/12/25 10:43:57;;;;;;;;;0.75;0.75;;;;;13.58;74.53;101198.47;4993932;28;45325;-77
2023/12/25 10:46:29;;;;;;;;;2.50;0.75;;;;;13.60;74.54;101185.78;4995187;28;45509;-76
2023/12/25 10:48:56;;;;;;;;;0.00;0.00;;;;;13.18;74.77;101107.28;4995380;28;45661;-76
2023/12/25 10:51:40;;;;;;;;;0.00;0.00;;;;;13.64;75.00;101178.34;4994356;28;45525;-80
2023/12/25 10:54:09;;;;;;;;;0.25;0.00;;;;;13.46;74.83;101148.13;4995660;28;45383;-79
2023/12/25 10:56:36;;;;;;;;;0.00;0.00;;;;;13.39;74.58;101140.69;4994786;28;45339;-78
2023/12/25 10:59:35;;;;;;;;;3.00;1.25;;;;;13.30;75.05;101140.78;4995264;28;45401;-78
2023/12/25 11:02:09;;;;;;;;;0.00;0.00;;;;;13.38;75.13;101162.22;4980465;28;45558;-76
2023/12/25 11:04:35;;;;;;;;;0.00;0.00;;;;;13.39;75.54;101156.72;5000115;28;45474;-79
2023/12/25 11:07:03;;;;;;;;;0.75;0.75;;;;;13.24;75.29;101125.38;4997370;28;45644;-77
2023/12/25 11:09:28;;;;;;;;;0.25;0.00;;;;;12.97;75.23;101072.84;4994798;28;45362;-77
2023/12/25 11:11:56;;;;;;;;;0.75;0.75;;;;;13.40;75.19;101146.88;4994782;28;45293;-79
2023/12/25 11:14:22;;;;;;;;;0.75;0.25;;;;;13.57;75.33;101158.56;4993165;28;45385;-77
2023/12/25 11:16:47;;;;;;;;;0.00;0.00;;;;;13.40;75.19;101122.84;4993623;28;45478;-76
2023/12/25 11:19:12;;;;;;;;;2.00;2.00;;;;;13.24;75.51;101096.84;4996378;28;45526;-77